Time;durP1;ratioP1;P1;durP2;ratioP2;P2;SDS_P1;SDS_P2;PMS_P1;PMS_P2;Temp;Humidity;BMP_temperature;BMP_pressure;BME280_temperature;BME280_humidity;BME280_pressure;Samples;Min_cycle;Max_cycle;Signal;HPM_P1;HPM_P2
2022/06/11 00:00:53;;;;;;;15.05;10.20;;;25.70;67.90;;;;;;5054505;28;20104;-75
2022/06/11 00:03:20;;;;;;;15.77;9.82;;;25.50;68.10;;;;;;5036596;28;20178;-74
2022/06/11 00:05:46;;;;;;;12.25;10.07;;;25.60;67.70;;;;;;5054705;28;20528;-73
2022/06/11 00:08:12;;;;;;;13.88;10.48;;;25.70;67.40;;;;;;5035934;28;20124;-74
2022/06/11 00:10:38;;;;;;;13.15;9.93;;;25.70;67.40;;;;;;5054311;28;20025;-85
2022/06/11 00:13:05;;;;;;;12.48;10.48;;;25.60;67.90;;;;;;5036398;28;20049;-76
2022/06/11 00:15:31;;;;;;;17.80;10.18;;;25.70;67.90;;;;;;5035848;28;20112;-74
2022/06/11 00:17:57;;;;;;;14.65;9.90;;;25.70;67.80;;;;;;5035995;28;20035;-74
2022/06/11 00:20:25;;;;;;;15.20;10.30;;;25.90;67.50;;;;;;5036127;28;20039;-74
2022/06/11 00:22:51;;;;;;;14.13;10.00;;;25.70;67.50;;;;;;5035559;28;20025;-74
2022/06/11 00:25:18;;;;;;;13.65;9.93;;;25.70;67.30;;;;;;5036224;28;20025;-75
2022/06/11 00:27:44;;;;;;;12.93;10.55;;;25.60;67.50;;;;;;5053543;28;20087;-74
2022/06/11 00:30:11;;;;;;;14.20;10.32;;;25.40;67.80;;;;;;5053939;28;20021;-77
2022/06/11 00:32:38;;;;;;;15.75;9.98;;;25.50;67.50;;;;;;5053967;28;20533;-76
2022/06/11 00:35:05;;;;;;;14.52;10.38;;;25.40;67.70;;;;;;5054438;28;20059;-77
2022/06/11 00:37:31;;;;;;;15.65;10.05;;;25.50;67.60;;;;;;5036099;28;20021;-74
2022/06/11 00:39:58;;;;;;;13.00;9.77;;;25.60;67.40;;;;;;5036211;28;20020;-76
2022/06/11 00:42:30;;;;;;;12.95;9.80;;;25.70;67.00;;;;;;5054138;28;20017;-78
2022/06/11 00:45:33;;;;;;;13.50;10.57;;;25.70;66.70;;;;;;5036308;28;20422;-81
2022/06/11 00:48:15;;;;;;;11.45;9.23;;;25.70;66.50;;;;;;4995575;28;20112;-80
2022/06/11 00:50:47;;;;;;;13.07;9.55;;;25.50;67.00;;;;;;4995818;28;20026;-74
2022/06/11 00:53:37;;;;;;;14.57;9.95;;;25.20;68.00;;;;;;4995667;28;20053;-77
2022/06/11 00:56:13;;;;;;;12.57;10.30;;;25.20;67.80;;;;;;4995657;28;20022;-87
2022/06/11 00:58:45;;;;;;;12.60;9.68;;;25.30;67.50;;;;;;4995168;28;20081;-84
2022/06/11 01:01:13;;;;;;;14.10;10.52;;;25.10;67.70;;;;;;4995823;28;20511;-85
2022/06/11 01:03:42;;;;;;;15.65;10.90;;;24.80;67.90;;;;;;5011652;28;20022;-79
2022/06/11 01:06:35;;;;;;;12.73;11.30;;;24.90;68.20;;;;;;4995027;28;20056;-74
2022/06/11 01:09:22;;;;;;;12.57;10.40;;;25.20;66.90;;;;;;5011684;28;20453;-76
2022/06/11 01:12:31;;;;;;;12.80;10.23;;;25.40;66.90;;;;;;4995454;28;20040;-75
2022/06/11 01:15:40;;;;;;;12.07;10.05;;;25.60;66.20;;;;;;5011571;28;20029;-75
2022/06/11 01:18:20;;;;;;;13.52;10.70;;;25.70;65.90;;;;;;4997781;28;20389;-76
2022/06/11 01:21:05;;;;;;;12.45;10.43;;;25.50;66.70;;;;;;4994932;28;20037;-74
2022/06/11 01:23:46;;;;;;;13.63;10.40;;;25.30;67.20;;;;;;5019086;28;20032;-75
2022/06/11 01:26:23;;;;;;;13.00;10.40;;;25.30;67.10;;;;;;5053173;28;20028;-76
2022/06/11 01:29:13;;;;;;;13.10;10.73;;;25.40;67.10;;;;;;5035585;28;20035;-74
2022/06/11 01:31:45;;;;;;;14.80;10.82;;;25.40;67.10;;;;;;5034838;28;20020;-74
2022/06/11 01:34:27;;;;;;;13.38;10.05;;;25.10;67.80;;;;;;5053324;28;20155;-77
2022/06/11 01:37:00;;;;;;;13.15;10.50;;;25.20;67.80;;;;;;5053100;28;20026;-76
2022/06/11 01:39:55;;;;;;;12.48;10.30;;;25.30;67.80;;;;;;5052515;28;20371;-84
2022/06/11 01:42:23;;;;;;;13.57;11.43;;;25.10;67.90;;;;;;5011220;28;20037;-80
2022/06/11 01:45:14;;;;;;;13.00;11.15;;;25.10;67.90;;;;;;5011430;28;20029;-83
2022/06/11 01:47:41;;;;;;;14.32;11.60;;;25.00;68.00;;;;;;5011210;28;20034;-77
2022/06/11 01:50:10;;;;;;;14.50;10.82;;;25.20;67.70;;;;;;5010921;28;20045;-77
2022/06/11 01:53:13;;;;;;;16.17;12.45;;;25.10;68.00;;;;;;4994639;28;20057;-78
2022/06/11 01:56:02;;;;;;;13.38;10.88;;;25.00;67.70;;;;;;5011127;28;20022;-77
2022/06/11 01:58:49;;;;;;;16.85;12.18;;;25.00;68.20;;;;;;4993278;28;20034;-74
2022/06/11 02:01:25;;;;;;;14.05;11.55;;;25.00;67.90;;;;;;4994169;28;20092;-80
2022/06/11 02:03:57;;;;;;;14.27;11.82;;;25.00;67.90;;;;;;5011106;28;20018;-78
2022/06/11 02:06:30;;;;;;;15.80;12.63;;;25.00;68.20;;;;;;4995221;28;20037;-75
2022/06/11 02:09:39;;;;;;;16.65;11.88;;;24.70;68.70;;;;;;5010632;28;20045;-74
2022/06/11 02:12:41;;;;;;;16.10;11.77;;;24.80;68.80;;;;;;4994666;28;20120;-77
2022/06/11 02:15:37;;;;;;;16.60;11.57;;;24.60;69.10;;;;;;4977683;28;20053;-77
2022/06/11 02:18:11;;;;;;;14.55;10.95;;;24.50;69.40;;;;;;5018413;28;20387;-83
2022/06/11 02:23:06;;;;;;;13.52;11.23;;;24.40;68.40;;;;;;5090014;28;20463;-81
2022/06/11 02:25:43;;;;;;;14.65;11.90;;;24.50;68.90;;;;;;5090617;28;20454;-76
2022/06/11 02:28:13;;;;;;;14.45;11.88;;;24.60;68.70;;;;;;5089116;28;20017;-80
2022/06/11 02:30:42;;;;;;;12.93;11.20;;;24.70;68.60;;;;;;5088977;28;20017;-78
2022/06/11 02:33:10;;;;;;;14.50;11.73;;;25.00;68.20;;;;;;5090273;28;20049;-76
2022/06/11 02:35:46;;;;;;;16.17;11.50;;;24.90;68.10;;;;;;5089146;28;20077;-82
2022/06/11 02:38:15;;;;;;;15.55;11.93;;;24.80;68.00;;;;;;5090377;28;20099;-85
2022/06/11 02:40:46;;;;;;;15.25;12.07;;;24.80;68.40;;;;;;5089499;28;20040;-82
2022/06/11 02:43:12;;;;;;;15.15;11.73;;;24.90;68.30;;;;;;5088933;28;20028;-76
2022/06/11 02:45:38;;;;;;;13.38;10.85;;;25.00;67.70;;;;;;5089942;28;20489;-77
2022/06/11 02:48:04;;;;;;;14.70;11.95;;;25.10;67.40;;;;;;5089428;28;20025;-79
2022/06/11 02:50:32;;;;;;;13.30;10.88;;;25.20;67.10;;;;;;5089942;28;20519;-79
2022/06/11 02:53:00;;;;;;;12.80;11.38;;;25.20;66.80;;;;;;5088862;28;20352;-78
2022/06/11 02:55:26;;;;;;;13.05;11.65;;;25.20;67.00;;;;;;5088767;28;20066;-77
2022/06/11 02:57:53;;;;;;;15.60;12.38;;;24.90;67.70;;;;;;5088399;28;20063;-76
2022/06/11 03:00:23;;;;;;;12.80;11.02;;;25.00;67.20;;;;;;5089720;28;20016;-76
2022/06/11 03:02:49;;;;;;;13.75;11.02;;;24.90;67.70;;;;;;5089401;28;20374;-87
2022/06/11 03:05:23;;;;;;;14.38;11.55;;;24.90;67.60;;;;;;5089538;28;20069;-77
2022/06/11 03:07:49;;;;;;;16.05;12.07;;;24.80;67.60;;;;;;5089510;28;20035;-76
2022/06/11 03:10:18;;;;;;;13.38;11.27;;;24.90;67.40;;;;;;5088116;28;20046;-76
2022/06/11 03:12:43;;;;;;;14.15;11.95;;;25.10;67.10;;;;;;5087898;28;20103;-76
2022/06/11 03:15:14;;;;;;;13.45;11.20;;;25.30;66.60;;;;;;5088126;28;20425;-79
2022/06/11 03:17:42;;;;;;;14.80;12.77;;;25.10;66.80;;;;;;5088049;28;20085;-81
2022/06/11 03:20:10;;;;;;;15.50;12.57;;;25.00;67.00;;;;;;5089280;28;20031;-76
2022/06/11 03:22:36;;;;;;;17.48;13.27;;;24.90;67.70;;;;;;5088573;28;20441;-77
2022/06/11 03:25:01;;;;;;;16.23;12.60;;;24.90;67.00;;;;;;5087844;28;20021;-78
2022/06/11 03:27:27;;;;;;;15.48;12.35;;;24.90;67.00;;;;;;5089370;28;20020;-77
2022/06/11 03:29:53;;;;;;;15.90;12.38;;;24.90;67.20;;;;;;5087911;28;20035;-75
2022/06/11 03:32:19;;;;;;;14.48;12.57;;;24.90;67.40;;;;;;5085708;28;20099;-77
2022/06/11 03:34:47;;;;;;;15.73;12.60;;;25.00;66.90;;;;;;5075720;28;20020;-75
2022/06/11 03:37:13;;;;;;;17.48;12.10;;;25.10;66.80;;;;;;5075526;28;20540;-77
2022/06/11 03:39:39;;;;;;;17.55;12.63;;;25.10;66.50;;;;;;5075251;28;20020;-75
2022/06/11 03:42:06;;;;;;;14.15;12.10;;;25.00;67.10;;;;;;5074245;28;20025;-79
2022/06/11 03:44:33;;;;;;;14.38;12.23;;;24.90;67.00;;;;;;5075417;28;20091;-76
2022/06/11 03:46:58;;;;;;;15.57;12.73;;;24.90;67.30;;;;;;5074300;28;20060;-80
2022/06/11 03:49:25;;;;;;;15.73;13.15;;;24.90;67.30;;;;;;5075740;28;20052;-91
2022/06/11 03:51:50;;;;;;;15.70;12.02;;;24.80;67.50;;;;;;5074270;28;20025;-83
2022/06/11 03:54:17;;;;;;;15.75;12.40;;;24.80;68.00;;;;;;5074186;28;20025;-77
2022/06/11 03:56:45;;;;;;;14.88;12.13;;;24.60;68.30;;;;;;5075239;28;20120;-77
2022/06/11 03:59:11;;;;;;;16.20;12.48;;;24.70;68.60;;;;;;5073974;28;20027;-78
2022/06/11 04:01:38;;;;;;;13.23;11.38;;;24.70;67.90;;;;;;5073494;28;20467;-76
2022/06/11 04:04:06;;;;;;;17.20;12.75;;;24.90;68.00;;;;;;5075042;28;20020;-76
2022/06/11 04:06:41;;;;;;;13.88;11.77;;;25.20;67.50;;;;;;5075172;28;20060;-76
2022/06/11 04:09:11;;;;;;;13.13;11.27;;;25.30;67.20;;;;;;5074909;28;20489;-75
2022/06/11 04:11:37;;;;;;;13.43;11.25;;;25.20;67.20;;;;;;5073474;28;20019;-76
2022/06/11 04:14:03;;;;;;;14.23;11.38;;;25.20;67.30;;;;;;5073447;28;20029;-79
2022/06/11 04:16:37;;;;;;;12.70;11.38;;;25.40;66.90;;;;;;5073434;28;20021;-78
2022/06/11 04:19:06;;;;;;;14.38;11.90;;;25.50;66.50;;;;;;5073739;28;20101;-84
2022/06/11 04:21:34;;;;;;;15.38;11.73;;;25.40;67.10;;;;;;5073641;28;20044;-76
2022/06/11 04:24:04;;;;;;;14.68;12.00;;;25.30;66.90;;;;;;5074711;28;20024;-76
2022/06/11 04:26:35;;;;;;;12.63;11.07;;;25.40;67.10;;;;;;5074485;28;20021;-76
2022/06/11 04:29:04;;;;;;;14.55;11.13;;;25.60;66.80;;;;;;5072873;28;20033;-75
2022/06/11 04:31:31;;;;;;;14.52;10.60;;;25.80;66.30;;;;;;5073006;28;20498;-76
2022/06/11 04:33:57;;;;;;;13.10;11.15;;;26.00;65.90;;;;;;5074524;28;20020;-81
2022/06/11 04:36:27;;;;;;;13.00;11.02;;;26.00;65.70;;;;;;5073016;28;20043;-78
2022/06/11 04:38:52;;;;;;;11.93;10.70;;;26.10;65.50;;;;;;5073952;28;20044;-77
2022/06/11 04:41:19;;;;;;;13.27;10.90;;;26.10;65.80;;;;;;5073984;28;20064;-76
2022/06/11 04:43:45;;;;;;;13.32;11.50;;;26.20;66.00;;;;;;5074355;28;20512;-76
2022/06/11 04:46:12;;;;;;;12.10;10.50;;;26.20;65.80;;;;;;5072716;28;20020;-76
2022/06/11 04:48:39;;;;;;;13.80;10.68;;;26.40;65.60;;;;;;5072487;28;20028;-75
2022/06/11 04:51:06;;;;;;;13.13;10.65;;;26.60;65.20;;;;;;5072340;28;20021;-77
2022/06/11 04:53:31;;;;;;;12.48;10.23;;;26.60;65.20;;;;;;5073230;28;20029;-76
2022/06/11 04:55:57;;;;;;;12.68;10.85;;;26.80;65.00;;;;;;5071884;28;20383;-76
2022/06/11 04:58:23;;;;;;;12.45;10.30;;;26.90;64.70;;;;;;5072336;28;20016;-75
2022/06/11 05:00:50;;;;;;;13.40;10.70;;;26.90;64.60;;;;;;5073012;28;20024;-76
2022/06/11 05:03:16;;;;;;;10.52;9.32;;;27.10;64.30;;;;;;5072981;28;20017;-76
2022/06/11 05:05:42;;;;;;;12.40;9.90;;;27.10;64.20;;;;;;5073450;28;20359;-75
2022/06/11 05:08:10;;;;;;;11.65;10.10;;;27.30;64.00;;;;;;5071808;28;20549;-77
2022/06/11 05:10:36;;;;;;;11.15;9.60;;;27.40;64.00;;;;;;5073458;28;20067;-76
2022/06/11 05:13:04;;;;;;;11.75;9.38;;;27.40;64.20;;;;;;5073563;28;20012;-77
2022/06/11 05:15:30;;;;;;;12.85;10.38;;;27.40;63.80;;;;;;5073242;28;20020;-77
2022/06/11 05:17:56;;;;;;;11.13;9.40;;;27.50;64.00;;;;;;5072836;28;20035;-74
2022/06/11 05:20:22;;;;;;;11.43;10.20;;;27.40;64.40;;;;;;5073387;28;20340;-76
2022/06/11 05:22:48;;;;;;;11.48;9.77;;;27.60;64.10;;;;;;5071303;28;20051;-76
2022/06/11 05:25:16;;;;;;;12.13;9.77;;;27.70;63.60;;;;;;5071757;28;20024;-76
2022/06/11 05:27:43;;;;;;;11.20;9.48;;;27.90;63.40;;;;;;5071891;28;20056;-78
2022/06/11 05:30:31;;;;;;;10.18;9.07;;;27.80;63.40;;;;;;5071701;28;20467;-77
2022/06/11 05:32:57;;;;;;;11.07;9.38;;;27.80;63.90;;;;;;5073060;28;20048;-76
2022/06/11 05:35:26;;;;;;;11.68;9.98;;;27.70;64.30;;;;;;5073098;28;20021;-78
2022/06/11 05:37:54;;;;;;;12.00;10.73;;;28.00;64.10;;;;;;5072902;28;20016;-77
2022/06/11 05:40:25;;;;;;;11.70;10.50;;;28.20;63.10;;;;;;5072995;28;20024;-78
2022/06/11 05:42:51;;;;;;;10.75;9.65;;;28.20;63.10;;;;;;5071452;28;20028;-76
2022/06/11 05:45:20;;;;;;;10.05;9.05;;;28.30;62.70;;;;;;5072427;28;20021;-76
2022/06/11 05:47:47;;;;;;;10.75;9.57;;;28.40;62.50;;;;;;5072970;28;20024;-77
2022/06/11 05:50:17;;;;;;;9.90;8.90;;;28.60;62.90;;;;;;5073200;28;20367;-78
2022/06/11 05:52:45;;;;;;;11.13;9.30;;;28.60;62.20;;;;;;5072875;28;20475;-77
2022/06/11 05:55:14;;;;;;;11.65;9.13;;;28.80;61.70;;;;;;5071510;28;20459;-77
2022/06/11 05:57:40;;;;;;;11.88;9.05;;;28.70;61.30;;;;;;5071695;28;20021;-79
2022/06/11 06:00:10;;;;;;;11.40;8.68;;;28.90;61.70;;;;;;5071409;28;20348;-77
2022/06/11 06:02:36;;;;;;;11.70;8.70;;;29.00;61.20;;;;;;5071375;28;20047;-78
2022/06/11 06:05:01;;;;;;;11.18;8.93;;;29.30;60.60;;;;;;5072911;28;20020;-77
2022/06/11 06:07:27;;;;;;;9.25;7.22;;;29.60;60.50;;;;;;5072933;28;20367;-80
2022/06/11 06:09:53;;;;;;;11.18;7.82;;;29.80;60.50;;;;;;5071662;28;20340;-77
2022/06/11 06:12:18;;;;;;;9.00;8.10;;;29.70;61.30;;;;;;5071044;28;20463;-79
2022/06/11 06:14:44;;;;;;;11.07;8.50;;;29.70;60.80;;;;;;5072868;28;20372;-77
2022/06/11 06:17:10;;;;;;;10.90;9.30;;;29.50;60.50;;;;;;5072754;28;20021;-77
2022/06/11 06:19:36;;;;;;;10.27;8.60;;;29.80;60.70;;;;;;5072530;28;20024;-78
2022/06/11 06:22:04;;;;;;;9.32;8.40;;;29.70;59.60;;;;;;5072551;28;20040;-77
2022/06/11 06:24:34;;;;;;;11.02;8.57;;;29.80;59.80;;;;;;5071539;28;20021;-79
2022/06/11 06:27:00;;;;;;;8.45;7.65;;;29.70;60.30;;;;;;5071502;28;20024;-79
2022/06/11 06:29:26;;;;;;;8.70;7.80;;;29.40;61.10;;;;;;5072813;28;20396;-80
2022/06/11 06:31:52;;;;;;;9.20;7.10;;;29.50;60.60;;;;;;5071372;28;20024;-79
2022/06/11 06:34:18;;;;;;;10.43;7.57;;;29.50;60.10;;;;;;5071282;28;20058;-76
2022/06/11 06:36:44;;;;;;;8.65;7.50;;;29.60;60.10;;;;;;5072175;28;20030;-78
2022/06/11 06:39:10;;;;;;;9.27;7.32;;;29.80;59.40;;;;;;5071930;28;20494;-79
2022/06/11 06:41:36;;;;;;;8.50;7.60;;;30.10;58.90;;;;;;5070779;28;20501;-79
2022/06/11 06:44:02;;;;;;;8.57;7.18;;;30.30;57.70;;;;;;5071425;28;20021;-79
2022/06/11 06:46:27;;;;;;;13.85;7.15;;;30.20;57.90;;;;;;5072738;28;20056;-82
2022/06/11 06:48:54;;;;;;;8.25;7.43;;;29.90;58.40;;;;;;5072543;28;20022;-79
2022/06/11 06:51:20;;;;;;;10.07;7.43;;;30.20;59.10;;;;;;5072587;28;20525;-79
2022/06/11 06:53:46;;;;;;;7.93;7.13;;;30.50;58.60;;;;;;5071189;28;20016;-78
2022/06/11 06:56:13;;;;;;;9.02;6.88;;;30.80;57.60;;;;;;5070528;28;20020;-78
2022/06/11 06:58:38;;;;;;;7.10;6.40;;;31.00;57.00;;;;;;5071075;28;20020;-82
2022/06/11 07:01:04;;;;;;;8.27;7.40;;;31.00;56.80;;;;;;5071364;28;20044;-80
2022/06/11 07:03:30;;;;;;;7.68;6.88;;;30.80;57.60;;;;;;5070895;28;20016;-80
2022/06/11 07:05:55;;;;;;;8.15;6.95;;;30.70;58.50;;;;;;5072431;28;20029;-85
2022/06/11 07:08:21;;;;;;;7.95;6.85;;;30.60;58.50;;;;;;5073489;28;20021;-82
2022/06/11 07:10:49;;;;;;;9.65;7.20;;;30.30;59.20;;;;;;5075244;28;20055;-82
2022/06/11 07:13:16;;;;;;;8.45;7.30;;;30.40;59.30;;;;;;5075978;28;20070;-79
2022/06/11 07:15:43;;;;;;;9.48;7.18;;;30.30;59.30;;;;;;5076513;28;20021;-81
2022/06/11 07:18:16;;;;;;;8.13;7.15;;;30.30;58.70;;;;;;5076553;28;20021;-83
2022/06/11 07:20:42;;;;;;;8.88;7.18;;;30.50;58.90;;;;;;5075798;28;20017;-76
2022/06/11 07:23:27;;;;;;;9.07;6.95;;;30.50;58.60;;;;;;5075694;28;20141;-76
2022/06/11 07:25:56;;;;;;;8.20;6.60;;;30.20;58.90;;;;;;5075713;28;20027;-88
2022/06/11 07:28:27;;;;;;;7.72;6.57;;;30.00;59.70;;;;;;5075545;28;20568;-92
2022/06/11 07:30:54;;;;;;;7.88;6.82;;;29.90;59.20;;;;;;5076420;28;20024;-90
2022/06/11 07:33:23;;;;;;;7.65;6.85;;;29.70;60.00;;;;;;5075881;28;20020;-81
2022/06/11 07:35:50;;;;;;;10.13;6.63;;;29.70;58.80;;;;;;5075180;28;20099;-86
2022/06/11 07:38:18;;;;;;;8.02;6.88;;;30.00;58.70;;;;;;5075055;28;20032;-79
2022/06/11 07:40:44;;;;;;;8.43;6.28;;;30.10;58.30;;;;;;5075681;28;20087;-78
2022/06/11 07:43:10;;;;;;;9.88;7.30;;;30.50;58.30;;;;;;5075801;28;20026;-79
2022/06/11 07:45:41;;;;;;;8.13;6.68;;;30.60;58.20;;;;;;5074751;28;20017;-81
2022/06/11 07:48:08;;;;;;;7.22;6.43;;;30.60;57.70;;;;;;5076060;28;20097;-83
2022/06/11 07:50:40;;;;;;;9.38;7.20;;;30.40;58.40;;;;;;5074757;28;20020;-80
2022/06/11 07:53:07;;;;;;;8.13;7.20;;;30.30;58.30;;;;;;5076019;28;20023;-82
2022/06/11 07:55:34;;;;;;;9.70;7.00;;;30.30;58.20;;;;;;5075787;28;20020;-92
2022/06/11 07:58:01;;;;;;;7.80;6.63;;;30.20;58.60;;;;;;5074598;28;20371;-81
2022/06/11 08:00:33;;;;;;;9.25;6.82;;;30.20;59.40;;;;;;5074444;28;20146;-78
2022/06/11 08:03:00;;;;;;;9.45;6.88;;;30.20;59.40;;;;;;5074435;28;20036;-88
2022/06/11 08:05:26;;;;;;;8.77;6.93;;;30.40;58.70;;;;;;5075554;28;20028;-84
2022/06/11 08:07:52;;;;;;;8.95;6.75;;;30.70;58.80;;;;;;5074224;28;20029;-87
2022/06/11 08:10:21;;;;;;;9.10;7.18;;;30.90;58.50;;;;;;5075279;28;20379;-85
2022/06/11 08:12:47;;;;;;;8.98;6.63;;;30.90;59.10;;;;;;5075690;28;20027;-91
2022/06/11 08:15:13;;;;;;;10.13;7.13;;;30.70;58.70;;;;;;5075614;28;20012;-78
2022/06/11 08:17:40;;;;;;;9.40;7.07;;;30.90;58.60;;;;;;5075269;28;20024;-79
2022/06/11 08:20:08;;;;;;;7.68;6.97;;;31.00;59.30;;;;;;5074028;28;20044;-85
2022/06/11 08:22:34;;;;;;;8.23;6.90;;;31.00;59.10;;;;;;5074062;28;20064;-83
2022/06/11 08:25:00;;;;;;;7.55;6.65;;;30.90;59.00;;;;;;5075630;28;20074;-88
2022/06/11 08:27:26;;;;;;;9.73;7.30;;;30.70;59.70;;;;;;5073404;28;20028;-85
2022/06/11 08:29:52;;;;;;;8.00;6.85;;;30.80;60.40;;;;;;5073427;28;20097;-89
2022/06/11 08:32:18;;;;;;;7.85;7.05;;;30.60;60.20;;;;;;5073315;28;20656;-85
2022/06/11 08:34:47;;;;;;;7.97;6.93;;;30.50;60.50;;;;;;5073589;28;20021;-91
2022/06/11 08:37:14;;;;;;;7.43;6.73;;;30.60;59.30;;;;;;5074849;28;20471;-86
2022/06/11 08:39:41;;;;;;;7.57;6.82;;;30.80;59.80;;;;;;5074520;28;20636;-89
2022/06/11 08:42:26;;;;;;;8.65;6.78;;;30.90;59.40;;;;;;5074833;28;20103;-85
2022/06/11 08:44:51;;;;;;;11.25;6.95;;;30.80;59.80;;;;;;5057066;28;20024;-90
2022/06/11 08:47:21;;;;;;;7.88;6.88;;;31.10;59.90;;;;;;5094796;28;20072;-82
2022/06/11 08:49:49;;;;;;;8.00;7.20;;;31.30;59.70;;;;;;5093561;28;20020;-84
2022/06/11 08:52:26;;;;;;;10.35;7.32;;;31.50;60.10;;;;;;5079253;28;20474;-91
2022/06/11 08:54:52;;;;;;;8.73;6.50;;;31.50;58.60;;;;;;5082925;28;20020;-84
2022/06/11 08:57:31;;;;;;;7.80;7.00;;;31.40;59.70;;;;;;5072017;28;20024;-81
2022/06/11 08:59:57;;;;;;;9.70;7.20;;;31.40;59.00;;;;;;5065826;28;20032;-81
2022/06/11 09:02:45;;;;;;;7.40;6.68;;;31.40;59.60;;;;;;5061420;28;20471;-87
2022/06/11 09:05:16;;;;;;;7.50;6.72;;;31.20;59.00;;;;;;5073736;28;20021;-79
2022/06/11 09:08:25;;;;;;;8.65;6.78;;;31.30;59.40;;;;;;5074660;28;20104;-81
2022/06/11 09:11:25;;;;;;;8.60;7.30;;;31.60;59.10;;;;;;5072490;28;20020;-89
2022/06/11 09:14:13;;;;;;;9.70;7.27;;;31.50;58.60;;;;;;5070255;28;20336;-83
2022/06/11 09:16:55;;;;;;;9.25;6.65;;;31.60;58.50;;;;;;5063519;28;20356;-87
2022/06/11 09:19:37;;;;;;;9.35;6.72;;;32.00;58.50;;;;;;5061073;28;20021;-87
2022/06/11 09:22:27;;;;;;;8.13;7.07;;;31.90;57.30;;;;;;5065721;28;20044;-84
2022/06/11 09:24:55;;;;;;;7.18;5.93;;;32.00;58.00;;;;;;5071832;28;20016;-86
2022/06/11 09:27:33;;;;;;;9.60;6.30;;;32.10;58.30;;;;;;5060516;28;20048;-82
2022/06/11 09:30:19;;;;;;;9.68;5.88;;;32.10;57.50;;;;;;5067109;28;20411;-82
2022/06/11 09:33:06;;;;;;;7.03;6.35;;;32.10;58.60;;;;;;5065911;28;20404;-81
2022/06/11 09:35:39;;;;;;;7.22;5.72;;;32.20;57.90;;;;;;5055315;28;20031;-80
2022/06/11 09:38:34;;;;;;;7.00;6.07;;;32.30;56.90;;;;;;5072769;28;20024;-93
2022/06/11 09:41:13;;;;;;;6.38;5.57;;;32.00;58.00;;;;;;5068252;28;20021;-84
2022/06/11 09:43:45;;;;;;;6.93;6.07;;;31.90;57.10;;;;;;5062793;28;20025;-81
2022/06/11 09:46:32;;;;;;;6.88;5.85;;;31.90;57.60;;;;;;5058013;28;20025;-80
2022/06/11 09:49:26;;;;;;;7.13;5.93;;;31.70;57.50;;;;;;5077037;28;20119;-87
2022/06/11 09:52:07;;;;;;;7.40;6.03;;;31.90;57.80;;;;;;5061009;28;20103;-87
2022/06/11 09:54:59;;;;;;;7.57;6.32;;;32.10;57.50;;;;;;5069614;28;20012;-85
2022/06/11 09:57:43;;;;;;;7.65;5.70;;;32.20;56.50;;;;;;5088655;28;20016;-89
2022/06/11 10:00:21;;;;;;;7.43;6.03;;;32.40;56.90;;;;;;5082104;28;20116;-82
2022/06/11 10:06:12;;;;;;;7.97;5.55;;;32.40;57.40;;;;;;5054063;28;20017;-83
2022/06/11 10:08:58;;;;;;;6.35;5.57;;;32.30;55.70;;;;;;5052551;28;20080;-81
2022/06/11 10:11:30;;;;;;;7.00;5.43;;;32.30;56.40;;;;;;5061560;28;20012;-85
2022/06/11 10:14:30;;;;;;;7.32;5.75;;;32.30;56.40;;;;;;5053388;28;20036;-82
2022/06/11 10:17:25;;;;;;;8.40;5.90;;;32.30;55.90;;;;;;5052364;28;20035;-80
2022/06/11 10:19:57;;;;;;;5.82;5.22;;;32.40;55.70;;;;;;5083739;28;20020;-82
2022/06/11 10:22:31;;;;;;;7.45;5.80;;;32.40;56.00;;;;;;5082497;28;20078;-82
2022/06/11 10:25:30;;;;;;;6.43;5.60;;;32.40;56.80;;;;;;5087392;28;20019;-82
2022/06/11 10:28:09;;;;;;;9.18;5.40;;;32.80;55.80;;;;;;5065888;28;20025;-83
2022/06/11 10:30:41;;;;;;;6.05;5.40;;;33.00;55.50;;;;;;5052821;28;20028;-86
2022/06/11 10:33:34;;;;;;;7.30;5.70;;;33.20;54.80;;;;;;5052970;28;20025;-91
2022/06/11 10:36:32;;;;;;;6.10;5.47;;;33.30;55.20;;;;;;5053272;28;20155;-81
2022/06/11 10:38:59;;;;;;;11.23;5.75;;;33.20;55.70;;;;;;5050278;28;20590;-85
2022/06/11 10:41:51;;;;;;;7.45;5.65;;;33.50;54.80;;;;;;5071945;28;20466;-84
2022/06/11 10:44:40;;;;;;;6.47;5.75;;;33.40;55.20;;;;;;5075165;28;20029;-80
2022/06/11 10:47:28;;;;;;;9.27;5.97;;;33.40;55.60;;;;;;5076760;28;20116;-82
2022/06/11 10:49:57;;;;;;;6.75;5.25;;;33.40;55.20;;;;;;5065383;28;20029;-84
2022/06/11 10:52:41;;;;;;;6.38;5.65;;;33.20;56.80;;;;;;5065373;28;20108;-85
2022/06/11 10:55:12;;;;;;;8.30;5.53;;;33.60;56.70;;;;;;5068455;28;20069;-93
2022/06/11 10:57:39;;;;;;;6.20;4.90;;;33.70;54.50;;;;;;5053827;28;20036;-81
2022/06/11 11:00:13;;;;;;;6.93;5.10;;;33.90;55.40;;;;;;5074719;28;20115;-87
2022/06/11 11:03:01;;;;;;;7.30;5.30;;;34.00;55.00;;;;;;5064850;28;20134;-82
2022/06/11 11:05:52;;;;;;;6.78;5.05;;;33.30;54.30;;;;;;5055544;28;20028;-80
2022/06/11 11:08:17;;;;;;;;;;;32.80;55.20;;;;;;5058600;28;20024;-85
2022/06/11 11:10:50;;;;;;;6.53;5.30;;;32.60;55.30;;;;;;5081401;28;19900;-82
2022/06/11 11:13:28;;;;;;;7.15;5.05;;;32.30;55.10;;;;;;5059179;28;20475;-81
2022/06/11 11:16:05;;;;;;;6.18;5.10;;;32.00;56.60;;;;;;5055990;28;20028;-86
2022/06/11 11:18:41;;;;;;;8.57;4.75;;;32.20;56.20;;;;;;5061893;28;20013;-80
2022/06/11 11:21:56;;;;;;;6.50;5.20;;;32.70;56.90;;;;;;5055570;28;20112;-83
2022/06/11 11:24:27;;;;;;;6.78;5.00;;;33.00;55.40;;;;;;5055580;28;20044;-85
2022/06/11 11:27:04;;;;;;;6.03;5.28;;;33.20;54.70;;;;;;5070374;28;20016;-88
2022/06/11 11:29:39;;;;;;;5.78;4.90;;;33.60;55.10;;;;;;5072670;28;20108;-82
2022/06/11 11:32:26;;;;;;;5.65;5.03;;;33.70;54.90;;;;;;5070751;28;20463;-80
2022/06/11 11:34:52;;;;;;;8.60;4.60;;;33.40;55.00;;;;;;5058252;28;20069;-83
2022/06/11 11:37:25;;;;;;;5.75;4.97;;;33.50;55.30;;;;;;5057798;28;20028;-81
2022/06/11 11:39:56;;;;;;;8.00;5.00;;;33.40;54.60;;;;;;5056007;28;20051;-78
2022/06/11 11:42:24;;;;;;;5.20;4.70;;;33.40;54.50;;;;;;5075227;28;20032;-82
2022/06/11 11:44:57;;;;;;;6.07;4.53;;;33.60;54.90;;;;;;5054829;28;20017;-80
2022/06/11 11:47:41;;;;;;;7.68;4.60;;;33.80;53.80;;;;;;5054935;28;20021;-78
2022/06/11 11:50:23;;;;;;;8.75;4.63;;;33.60;53.50;;;;;;5054951;28;20012;-82
2022/06/11 11:52:57;;;;;;;7.22;4.78;;;33.40;54.60;;;;;;5056782;28;20047;-82
2022/06/11 11:55:29;;;;;;;7.18;4.70;;;33.40;54.70;;;;;;5054716;28;20024;-86
2022/06/11 11:58:05;;;;;;;5.68;4.60;;;33.60;55.10;;;;;;5055107;28;20048;-85
2022/06/11 12:00:55;;;;;;;6.57;4.60;;;33.60;54.60;;;;;;5056104;28;20052;-91
2022/06/11 12:03:37;;;;;;;6.15;4.80;;;33.70;55.20;;;;;;5074912;28;20052;-80
2022/06/11 12:06:04;;;;;;;5.80;4.50;;;33.80;54.20;;;;;;5068675;28;20044;-80
2022/06/11 12:08:44;;;;;;;6.57;4.50;;;34.00;54.50;;;;;;5055411;28;20025;-87
2022/06/11 12:11:31;;;;;;;6.38;4.50;;;34.00;54.20;;;;;;5072457;28;20089;-84
2022/06/11 12:14:01;;;;;;;6.20;4.25;;;34.10;53.40;;;;;;5074568;28;20028;-85
2022/06/11 12:16:53;;;;;;;5.68;4.28;;;34.30;52.70;;;;;;5083045;28;20036;-86
2022/06/11 12:19:21;;;;;;;7.85;4.40;;;34.40;53.60;;;;;;5079291;28;20420;-81
2022/06/11 12:21:56;;;;;;;5.35;3.97;;;34.50;54.50;;;;;;5069013;28;20451;-86
2022/06/11 12:24:30;;;;;;;5.78;4.10;;;34.50;52.90;;;;;;5074532;28;20023;-84
2022/06/11 12:27:01;;;;;;;8.90;4.22;;;34.30;52.60;;;;;;5074235;28;20024;-82
2022/06/11 12:29:41;;;;;;;6.13;4.18;;;34.10;54.00;;;;;;5060276;28;20551;-81
2022/06/11 12:32:21;;;;;;;5.10;4.30;;;34.00;52.20;;;;;;5066687;28;20383;-87
2022/06/11 12:34:47;;;;;;;5.47;4.28;;;34.00;52.50;;;;;;5074444;28;20025;-81
2022/06/11 12:37:36;;;;;;;6.63;4.30;;;33.90;52.00;;;;;;5072029;28;20029;-82
2022/06/11 12:40:23;;;;;;;7.22;4.20;;;34.10;53.10;;;;;;5074338;28;20056;-87
2022/06/11 12:43:01;;;;;;;5.88;3.80;;;34.20;52.10;;;;;;5054046;28;20078;-83
2022/06/11 12:45:30;;;;;;;6.82;4.25;;;34.30;52.90;;;;;;5092612;28;20012;-83
2022/06/11 12:48:34;;;;;;;4.75;3.90;;;34.30;52.60;;;;;;5084797;28;20024;-82
2022/06/11 12:51:41;;;;;;;4.90;3.95;;;34.40;52.70;;;;;;5053719;28;20116;-84
2022/06/11 12:54:26;;;;;;;4.93;4.07;;;34.30;53.00;;;;;;5062738;28;20089;-84
2022/06/11 12:56:59;;;;;;;6.57;4.15;;;34.50;52.90;;;;;;5058216;28;20031;-87
2022/06/11 13:00:09;;;;;;;5.25;3.90;;;34.60;51.50;;;;;;5055505;28;20115;-80
2022/06/11 13:02:35;;;;;;;7.22;4.30;;;34.30;50.90;;;;;;5073784;28;20082;-77
2022/06/11 13:05:45;;;;;;;6.18;4.40;;;34.30;50.10;;;;;;5071970;27;1500990;-76
2022/06/11 13:08:18;;;;;;;4.68;4.13;;;34.50;53.30;;;;;;5072712;28;20028;-79
2022/06/11 13:10:47;;;;;;;5.80;4.20;;;34.50;53.10;;;;;;5085325;28;20020;-81
2022/06/11 13:13:43;;;;;;;6.15;4.35;;;34.50;51.80;;;;;;5090210;28;20074;-79
2022/06/11 13:16:24;;;;;;;8.32;4.47;;;34.70;51.50;;;;;;5090991;28;20032;-80